Time;durP1;ratioP1;P1;durP2;ratioP2;P2;SDS_P1;SDS_P2;PMS_P1;PMS_P2;Temp;Humidity;BMP_temperature;BMP_pressure;BME280_temperature;BME280_humidity;BME280_pressure;Samples;Min_cycle;Max_cycle;Signal;HPM_P1;HPM_P2
2023/09/26 00:02:06;;;;;;;1999.90;999.90;;;13.90;99.90;;;;;;4984233;28;20474;-67
2023/09/26 00:04:32;;;;;;;1999.90;999.90;;;13.90;99.90;;;;;;5014194;28;20041;-67
2023/09/26 00:07:00;;;;;;;1999.90;999.90;;;13.90;99.90;;;;;;4984255;28;20050;-67
2023/09/26 00:09:27;;;;;;;1999.90;999.90;;;13.90;99.90;;;;;;4966234;28;20468;-67
2023/09/26 00:11:52;;;;;;;1999.90;999.90;;;13.90;99.90;;;;;;4986048;28;20043;-67
2023/09/26 00:14:18;;;;;;;1999.90;999.90;;;13.80;99.90;;;;;;4986213;28;20041;-67
2023/09/26 00:16:44;;;;;;;1999.90;999.90;;;13.90;99.90;;;;;;5000108;28;20050;-67
2023/09/26 00:19:10;;;;;;;1999.90;999.90;;;13.80;99.90;;;;;;4980251;28;20540;-67
2023/09/26 00:21:35;;;;;;;1999.90;999.90;;;13.80;99.90;;;;;;4978155;28;20091;-67
2023/09/26 00:24:01;;;;;;;1999.90;999.90;;;13.80;99.90;;;;;;4984407;28;20084;-67
2023/09/26 00:26:26;;;;;;;1999.90;999.90;;;13.70;99.90;;;;;;4970465;28;20034;-67
2023/09/26 00:28:52;;;;;;;1999.90;999.90;;;13.60;99.90;;;;;;4971150;28;20054;-67
2023/09/26 00:31:18;;;;;;;1999.90;999.90;;;13.60;99.90;;;;;;4984318;28;20038;-67
2023/09/26 00:33:44;;;;;;;1999.90;999.90;;;13.60;99.90;;;;;;5010629;28;20047;-67
2023/09/26 00:36:10;;;;;;;1999.90;999.90;;;13.50;99.90;;;;;;4983386;28;20380;-67
2023/09/26 00:38:36;;;;;;;1999.90;999.90;;;13.40;99.90;;;;;;4987006;28;20037;-67
2023/09/26 00:41:02;;;;;;;1999.90;999.90;;;13.40;99.90;;;;;;4972074;28;20130;-67
2023/09/26 00:43:28;;;;;;;1999.90;999.90;;;13.40;99.90;;;;;;4985022;28;20034;-67
2023/09/26 00:45:55;;;;;;;1999.90;999.90;;;13.30;99.90;;;;;;5003600;28;20049;-67
2023/09/26 00:48:23;;;;;;;1999.90;999.90;;;13.30;99.90;;;;;;4983764;28;20125;-67
2023/09/26 00:50:50;;;;;;;1999.90;999.90;;;13.30;99.90;;;;;;4980781;28;20368;-67
2023/09/26 00:53:16;;;;;;;1999.90;999.90;;;13.30;99.90;;;;;;4977040;28;20057;-67
2023/09/26 00:55:44;;;;;;;1999.90;999.90;;;13.20;99.90;;;;;;4985570;28;20042;-67
2023/09/26 00:58:11;;;;;;;1999.90;999.90;;;13.10;99.90;;;;;;4985028;28;20076;-67
2023/09/26 01:00:38;;;;;;;1999.90;999.90;;;13.10;99.90;;;;;;4980925;28;20055;-67
2023/09/26 01:03:04;;;;;;;1999.90;999.90;;;13.10;99.90;;;;;;4982677;28;20122;-67
2023/09/26 01:05:31;;;;;;;1999.90;999.90;;;13.10;99.90;;;;;;4986042;28;20064;-67
2023/09/26 01:07:57;;;;;;;1999.90;999.90;;;13.00;99.90;;;;;;4986599;28;20376;-67
2023/09/26 01:10:22;;;;;;;1999.90;999.90;;;12.90;99.90;;;;;;4980742;28;20050;-67
2023/09/26 01:12:49;;;;;;;1999.90;999.90;;;12.90;99.90;;;;;;4979641;28;20551;-67
2023/09/26 01:15:33;;;;;;;1999.90;999.90;;;12.90;99.90;;;;;;4980018;28;20054;-67
2023/09/26 01:17:59;;;;;;;1999.90;999.90;;;12.90;99.90;;;;;;4978243;28;20410;-66
2023/09/26 01:20:24;;;;;;;1999.90;999.90;;;12.80;99.90;;;;;;4977298;28;20058;-67
2023/09/26 01:22:52;;;;;;;1999.90;999.90;;;12.80;99.90;;;;;;4969979;28;20027;-67
2023/09/26 01:25:17;;;;;;;1999.90;999.90;;;12.80;99.90;;;;;;4971399;28;20054;-67
2023/09/26 01:27:43;;;;;;;1999.90;999.90;;;12.80;99.90;;;;;;4977746;28;20046;-67
2023/09/26 01:30:10;;;;;;;1999.90;999.90;;;12.80;99.90;;;;;;4980720;28;20042;-67
2023/09/26 01:32:35;;;;;;;1999.90;999.90;;;12.70;99.90;;;;;;4969486;28;20084;-67
2023/09/26 01:35:01;;;;;;;1999.90;999.90;;;12.70;99.90;;;;;;4985119;28;20429;-67
2023/09/26 01:37:26;;;;;;;1999.90;999.90;;;12.70;99.90;;;;;;4986108;28;20488;-67
2023/09/26 01:39:52;;;;;;;1999.90;999.90;;;12.70;99.90;;;;;;4973539;28;20130;-67
2023/09/26 01:42:18;;;;;;;1999.90;999.90;;;12.70;99.90;;;;;;4974788;28;20058;-67
2023/09/26 01:44:43;;;;;;;1999.90;999.90;;;12.70;99.90;;;;;;4986124;28;20046;-67
2023/09/26 01:47:30;;;;;;;1999.90;999.90;;;12.70;99.90;;;;;;4985142;28;20038;-67
2023/09/26 01:49:55;;;;;;;1999.90;999.90;;;12.60;99.90;;;;;;4982056;28;20059;-67
2023/09/26 01:52:21;;;;;;;1999.90;999.90;;;12.60;99.90;;;;;;4976067;28;20509;-67
2023/09/26 01:54:47;;;;;;;1999.90;999.90;;;12.60;99.90;;;;;;4982086;28;20049;-67
2023/09/26 01:57:12;;;;;;;1999.90;999.90;;;12.50;99.90;;;;;;4980467;28;20051;-67
2023/09/26 01:59:39;;;;;;;1999.90;999.90;;;12.50;99.90;;;;;;5009498;28;20134;-67
2023/09/26 02:02:04;;;;;;;1999.90;999.90;;;12.50;99.90;;;;;;4978308;28;20161;-67
2023/09/26 02:04:30;;;;;;;1999.90;999.90;;;12.50;99.90;;;;;;5007427;28;20134;-67
2023/09/26 02:06:55;;;;;;;1999.90;999.90;;;12.40;99.90;;;;;;5012555;28;20091;-67
2023/09/26 02:09:24;;;;;;;1999.90;999.90;;;12.40;99.90;;;;;;4980832;28;20498;-67
2023/09/26 02:11:49;;;;;;;1999.90;999.90;;;12.30;99.90;;;;;;4980232;28;20095;-67
2023/09/26 02:14:15;;;;;;;1999.90;999.90;;;12.30;99.90;;;;;;5003380;28;20031;-67
2023/09/26 02:16:41;;;;;;;1999.90;999.90;;;12.20;99.90;;;;;;4986782;28;20491;-67
2023/09/26 02:19:08;;;;;;;1999.90;999.90;;;12.20;99.90;;;;;;4985071;28;20053;-67
2023/09/26 02:21:34;;;;;;;1999.90;999.90;;;12.20;99.90;;;;;;4984318;28;20050;-67
2023/09/26 02:24:00;;;;;;;1999.90;999.90;;;12.20;99.90;;;;;;4978815;28;20057;-67
2023/09/26 02:26:25;;;;;;;1999.90;999.90;;;12.20;99.90;;;;;;4991478;28;20053;-67
2023/09/26 02:28:51;;;;;;;1999.90;999.90;;;12.10;99.90;;;;;;4992509;28;20111;-67
2023/09/26 02:31:16;;;;;;;1999.90;999.90;;;12.10;99.90;;;;;;4981565;28;20070;-67
2023/09/26 02:33:42;;;;;;;1999.90;999.90;;;12.10;99.90;;;;;;4972786;28;20391;-67
2023/09/26 02:36:08;;;;;;;1999.90;999.90;;;12.10;99.90;;;;;;4975953;28;20448;-67
2023/09/26 02:38:33;;;;;;;1999.90;999.90;;;12.10;99.90;;;;;;4992307;28;20050;-67
2023/09/26 02:40:59;;;;;;;1999.90;999.90;;;12.10;99.90;;;;;;5002044;28;21287;-67
2023/09/26 02:43:25;;;;;;;1999.90;999.90;;;12.10;99.90;;;;;;5017196;28;20091;-67
2023/09/26 02:45:51;;;;;;;1999.90;999.90;;;12.20;99.90;;;;;;4980885;28;20379;-67
2023/09/26 02:48:16;;;;;;;1999.90;999.90;;;12.10;99.90;;;;;;4984430;28;20049;-67
2023/09/26 02:50:42;;;;;;;1999.90;999.90;;;12.10;99.90;;;;;;4974572;28;20038;-67
2023/09/26 02:53:08;;;;;;;1999.90;999.90;;;12.10;99.90;;;;;;4981302;28;20080;-67
2023/09/26 02:55:38;;;;;;;1999.90;999.90;;;12.00;99.90;;;;;;4970666;28;20039;-67
2023/09/26 02:58:04;;;;;;;1999.90;999.90;;;12.00;99.90;;;;;;4981417;28;20490;-67
2023/09/26 03:00:29;;;;;;;1999.90;999.90;;;12.10;99.90;;;;;;4980910;28;20046;-67
2023/09/26 03:02:55;;;;;;;1999.90;999.90;;;12.00;99.90;;;;;;4979573;28;20042;-67
2023/09/26 03:05:21;;;;;;;1999.90;999.90;;;12.00;99.90;;;;;;4987135;28;20049;-67
2023/09/26 03:07:46;;;;;;;1999.90;999.90;;;11.90;99.90;;;;;;4982303;28;20049;-67
2023/09/26 03:10:13;;;;;;;1999.90;999.90;;;11.90;99.90;;;;;;4984597;28;20047;-67
2023/09/26 03:12:46;;;;;;;1999.90;999.90;;;11.90;99.90;;;;;;4974147;28;20061;-67
2023/09/26 03:15:12;;;;;;;1999.90;999.90;;;11.80;99.90;;;;;;4984316;28;20038;-67
2023/09/26 03:17:37;;;;;;;1999.90;999.90;;;11.90;99.90;;;;;;4987529;28;20049;-67
2023/09/26 03:20:04;;;;;;;1999.90;999.90;;;11.80;99.90;;;;;;4963328;28;20166;-67
2023/09/26 03:22:29;;;;;;;1999.90;999.90;;;11.80;99.90;;;;;;4981832;28;20042;-67
2023/09/26 03:24:55;;;;;;;1999.90;999.90;;;11.80;99.90;;;;;;4989183;28;20052;-67
2023/09/26 03:27:23;;;;;;;1999.90;999.90;;;11.80;99.90;;;;;;4983330;28;20410;-67
2023/09/26 03:29:51;;;;;;;1999.90;999.90;;;11.80;99.90;;;;;;4975604;28;20039;-67
2023/09/26 03:32:18;;;;;;;1999.90;999.90;;;11.90;99.90;;;;;;4977044;28;20038;-67
2023/09/26 03:34:43;;;;;;;1999.90;999.90;;;11.90;99.90;;;;;;4984776;28;20042;-67
2023/09/26 03:37:09;;;;;;;1999.90;999.90;;;12.00;99.90;;;;;;4970216;28;20379;-67
2023/09/26 03:39:34;;;;;;;1999.90;999.90;;;12.10;99.90;;;;;;4976198;28;20046;-67
2023/09/26 03:42:00;;;;;;;1999.90;999.90;;;12.10;99.90;;;;;;4979585;28;20058;-67
2023/09/26 03:44:25;;;;;;;1999.90;999.90;;;12.20;99.90;;;;;;4997200;28;20054;-67
2023/09/26 03:46:51;;;;;;;1999.90;999.90;;;12.30;99.90;;;;;;4987013;28;20534;-67
2023/09/26 03:49:17;;;;;;;1999.90;999.90;;;12.30;99.90;;;;;;4985888;28;20085;-68
2023/09/26 03:51:42;;;;;;;1999.90;999.90;;;12.30;99.90;;;;;;4970863;28;20061;-67
2023/09/26 03:54:08;;;;;;;1999.90;999.90;;;12.30;99.90;;;;;;4969558;28;20046;-67
2023/09/26 03:56:33;;;;;;;1999.90;999.90;;;12.30;99.90;;;;;;4973604;28;20063;-67
2023/09/26 03:58:59;;;;;;;1999.90;999.90;;;12.20;99.90;;;;;;5014430;28;20387;-67
2023/09/26 04:01:25;;;;;;;1999.90;999.90;;;12.20;99.90;;;;;;4976378;28;20053;-67
2023/09/26 04:03:52;;;;;;;1999.90;999.90;;;12.20;99.90;;;;;;4979183;28;20483;-67
2023/09/26 04:06:18;;;;;;;1999.90;999.90;;;12.10;99.90;;;;;;4983146;28;20123;-67
2023/09/26 04:08:44;;;;;;;1999.90;999.90;;;12.10;99.90;;;;;;4982265;28;20077;-67
2023/09/26 04:11:16;;;;;;;1999.90;999.90;;;12.10;99.90;;;;;;4982097;28;20051;-67
2023/09/26 04:13:43;;;;;;;1999.90;999.90;;;12.10;99.90;;;;;;4981870;28;20050;-67
2023/09/26 04:16:09;;;;;;;1999.90;999.90;;;12.10;99.90;;;;;;4981478;28;20117;-67
2023/09/26 04:18:35;;;;;;;1999.90;999.90;;;12.20;99.90;;;;;;4965866;28;20443;-67
2023/09/26 04:21:02;;;;;;;1999.90;999.90;;;12.20;99.90;;;;;;4980203;28;20096;-67
2023/09/26 04:23:28;;;;;;;1999.90;999.90;;;12.20;99.90;;;;;;4979554;28;20129;-67
2023/09/26 04:25:54;;;;;;;1999.90;999.90;;;12.20;99.90;;;;;;4985447;28;20129;-67
2023/09/26 04:28:19;;;;;;;1999.90;999.90;;;12.20;99.90;;;;;;4987168;28;20509;-67
2023/09/26 04:30:45;;;;;;;1999.90;999.90;;;12.20;99.90;;;;;;4984207;28;20038;-67
2023/09/26 04:33:10;;;;;;;1999.90;999.90;;;12.20;99.90;;;;;;4984277;28;20050;-67
2023/09/26 04:35:36;;;;;;;1999.90;999.90;;;12.20;99.90;;;;;;4962753;28;20053;-67
2023/09/26 04:38:03;;;;;;;1999.90;999.90;;;12.20;99.90;;;;;;4985466;28;20434;-67
2023/09/26 04:40:28;;;;;;;1999.90;999.90;;;12.30;99.90;;;;;;4983643;28;20442;-67
2023/09/26 04:43:00;;;;;;;1999.90;999.90;;;12.30;99.90;;;;;;4979996;28;20062;-67
2023/09/26 04:45:29;;;;;;;1999.90;999.90;;;12.30;99.90;;;;;;4977912;28;20052;-67
2023/09/26 04:48:00;;;;;;;1999.90;999.90;;;12.40;99.90;;;;;;4975085;28;20043;-67
2023/09/26 04:50:28;;;;;;;1999.90;999.90;;;12.40;99.90;;;;;;4985743;28;20038;-67
2023/09/26 04:52:54;;;;;;;1999.90;999.90;;;12.50;99.90;;;;;;4987539;28;20055;-67
2023/09/26 04:55:20;;;;;;;1999.90;999.90;;;12.50;99.90;;;;;;4978027;28;20046;-67
2023/09/26 04:57:46;;;;;;;1999.90;999.90;;;12.60;99.90;;;;;;4985085;28;20054;-68
2023/09/26 05:00:17;;;;;;;1999.90;999.90;;;12.60;99.90;;;;;;4981949;28;20050;-68
2023/09/26 05:02:43;;;;;;;1999.90;999.90;;;12.60;99.90;;;;;;4977367;28;20402;-67
2023/09/26 05:05:10;;;;;;;1999.90;999.90;;;12.70;99.90;;;;;;4987226;28;20494;-67
2023/09/26 05:07:36;;;;;;;1999.90;999.90;;;12.70;99.90;;;;;;4977887;28;20402;-67
2023/09/26 05:10:03;;;;;;;1999.90;999.90;;;12.80;99.90;;;;;;4981695;28;20052;-67
2023/09/26 05:12:29;;;;;;;1999.90;999.90;;;12.80;99.90;;;;;;4986168;28;20116;-67
2023/09/26 05:14:56;;;;;;;1999.90;999.90;;;12.80;99.90;;;;;;4986379;28;20046;-67
2023/09/26 05:17:24;;;;;;;1999.90;999.90;;;12.80;99.90;;;;;;4975488;28;20534;-68
2023/09/26 05:19:51;;;;;;;1999.90;999.90;;;12.90;99.90;;;;;;4981760;28;20050;-67
2023/09/26 05:22:17;;;;;;;1999.90;999.90;;;12.90;99.90;;;;;;4979556;28;20038;-68
2023/09/26 05:24:43;;;;;;;1999.90;999.90;;;13.00;99.90;;;;;;4971390;28;20039;-68
2023/09/26 05:27:09;;;;;;;1999.90;999.90;;;13.00;99.90;;;;;;4982090;28;20453;-67
2023/09/26 05:29:35;;;;;;;1999.90;999.90;;;13.00;99.90;;;;;;4980182;28;20046;-67
2023/09/26 05:32:01;;;;;;;1999.90;999.90;;;13.10;99.90;;;;;;4978075;28;20035;-67
2023/09/26 05:34:27;;;;;;;1999.90;999.90;;;13.10;99.90;;;;;;4985517;28;20031;-67
2023/09/26 05:36:52;;;;;;;1999.90;999.90;;;13.10;99.90;;;;;;4976075;28;20077;-68
2023/09/26 05:39:18;;;;;;;1999.90;999.90;;;13.10;99.90;;;;;;4986832;28;20038;-67
2023/09/26 05:41:43;;;;;;;1999.90;999.90;;;13.10;99.90;;;;;;4984186;28;20054;-67
2023/09/26 05:44:11;;;;;;;1999.90;999.90;;;13.10;99.90;;;;;;4984085;28;20121;-68
2023/09/26 05:46:37;;;;;;;1999.90;999.90;;;13.10;99.90;;;;;;4984282;28;20125;-67
2023/09/26 05:49:03;;;;;;;1999.90;999.90;;;13.10;99.90;;;;;;4984877;28;20100;-67
2023/09/26 05:51:29;;;;;;;1999.90;999.90;;;13.10;99.90;;;;;;5052289;28;20507;-68
2023/09/26 05:53:54;;;;;;;1999.90;999.90;;;13.10;99.90;;;;;;4977186;28;20035;-68
2023/09/26 05:56:20;;;;;;;1999.90;999.90;;;13.00;99.90;;;;;;4980791;28;20159;-67
2023/09/26 05:58:46;;;;;;;1999.90;999.90;;;13.00;99.90;;;;;;4968200;28;20039;-67
2023/09/26 06:01:12;;;;;;;1999.90;999.90;;;13.00;99.90;;;;;;4985199;28;20050;-67
2023/09/26 06:03:38;;;;;;;1999.90;999.90;;;13.00;99.90;;;;;;4984558;28;20383;-68
2023/09/26 06:06:04;;;;;;;1999.90;999.90;;;13.10;99.90;;;;;;4975994;28;20479;-67
2023/09/26 06:08:30;;;;;;;1999.90;999.90;;;13.10;99.90;;;;;;4979851;28;20462;-67
2023/09/26 06:10:55;;;;;;;1999.90;999.90;;;13.10;99.90;;;;;;4973028;28;20035;-67
2023/09/26 06:13:21;;;;;;;1999.90;999.90;;;13.10;99.90;;;;;;4974260;28;20550;-67
2023/09/26 06:15:47;;;;;;;1999.90;999.90;;;13.10;99.90;;;;;;4985627;28;20046;-67
2023/09/26 06:18:13;;;;;;;1999.90;999.90;;;13.10;99.90;;;;;;4986517;28;20046;-67
2023/09/26 06:20:40;;;;;;;1999.90;999.90;;;13.10;99.90;;;;;;4984929;28;20077;-67
2023/09/26 06:23:06;;;;;;;1999.90;999.90;;;13.20;99.90;;;;;;4984778;28;20505;-67
2023/09/26 06:25:31;;;;;;;1999.90;999.90;;;13.30;99.90;;;;;;4981520;28;20057;-67
2023/09/26 06:27:57;;;;;;;1999.90;999.90;;;13.40;99.90;;;;;;4980955;28;20482;-67
2023/09/26 06:30:23;;;;;;;1999.90;999.90;;;13.50;99.90;;;;;;4984653;28;20034;-67
2023/09/26 06:32:48;;;;;;;1999.90;999.90;;;13.50;99.90;;;;;;4981489;28;20030;-67
2023/09/26 06:35:14;;;;;;;1999.90;999.90;;;13.60;99.90;;;;;;4984824;28;20044;-67
2023/09/26 06:37:40;;;;;;;1999.90;999.90;;;13.60;99.90;;;;;;4968928;28;20123;-67
2023/09/26 06:40:06;;;;;;;1999.90;999.90;;;13.70;99.90;;;;;;4989986;28;20084;-67
2023/09/26 06:42:33;;;;;;;1999.90;999.90;;;13.80;99.90;;;;;;4988396;28;20050;-68
2023/09/26 06:44:59;;;;;;;1999.90;999.90;;;13.90;99.90;;;;;;5003982;28;20147;-67
2023/09/26 06:47:28;;;;;;;1999.90;999.90;;;14.00;99.90;;;;;;4989000;28;20074;-67
2023/09/26 06:49:55;;;;;;;1999.90;999.90;;;14.00;99.90;;;;;;4987225;28;20473;-67
2023/09/26 06:52:22;;;;;;;1999.90;999.90;;;14.10;99.90;;;;;;5003271;28;20078;-67
2023/09/26 06:54:49;;;;;;;1999.90;999.90;;;14.30;99.90;;;;;;4987077;28;20042;-68
2023/09/26 06:57:18;;;;;;;1999.90;999.90;;;14.40;99.90;;;;;;4989494;28;20054;-67
2023/09/26 06:59:50;;;;;;;1999.90;999.90;;;14.40;99.90;;;;;;4989164;28;20061;-67
2023/09/26 07:02:16;;;;;;;1999.90;999.90;;;14.60;99.90;;;;;;4986755;28;20410;-67
2023/09/26 07:04:42;;;;;;;1999.90;999.90;;;14.60;99.90;;;;;;4982100;28;20382;-67
2023/09/26 07:07:08;;;;;;;1999.90;999.90;;;14.70;99.90;;;;;;4987276;28;20505;-68
2023/09/26 07:09:33;;;;;;;1999.90;999.90;;;14.80;99.90;;;;;;4981676;28;20053;-67
2023/09/26 07:11:59;;;;;;;1999.90;999.90;;;14.80;99.90;;;;;;4979412;28;20056;-67
2023/09/26 07:14:25;;;;;;;1999.90;999.90;;;14.90;99.90;;;;;;4979430;28;20080;-68
2023/09/26 07:16:51;;;;;;;1999.90;999.90;;;14.90;99.90;;;;;;4986342;28;20117;-67
2023/09/26 07:19:17;;;;;;;1999.90;999.90;;;15.00;99.90;;;;;;4987058;28;20050;-67
2023/09/26 07:21:42;;;;;;;1999.90;999.90;;;15.10;99.90;;;;;;4989179;28;20047;-68
2023/09/26 07:24:09;;;;;;;1999.90;999.90;;;15.10;99.90;;;;;;5010411;28;20109;-67
2023/09/26 07:26:34;;;;;;;1999.90;999.90;;;15.10;99.90;;;;;;4989590;28;20038;-67
2023/09/26 07:29:00;;;;;;;1999.90;999.90;;;15.20;99.90;;;;;;4986784;28;20107;-68
2023/09/26 07:31:26;;;;;;;1999.90;999.90;;;15.20;99.90;;;;;;4984625;28;20034;-67
2023/09/26 07:33:52;;;;;;;1999.90;999.90;;;15.30;99.90;;;;;;4979655;28;20049;-67
2023/09/26 07:36:17;;;;;;;1999.90;999.90;;;15.30;99.90;;;;;;5009101;28;20045;-67
2023/09/26 07:38:44;;;;;;;1999.90;999.90;;;15.40;99.90;;;;;;5055906;28;20578;-67
2023/09/26 07:41:09;;;;;;;1999.90;999.90;;;15.40;99.90;;;;;;4977674;28;20062;-67
2023/09/26 07:43:35;;;;;;;1999.90;999.90;;;15.50;99.90;;;;;;4986012;28;20084;-68
2023/09/26 07:46:09;;;;;;;1999.90;999.90;;;15.60;99.90;;;;;;4987180;28;20042;-68
2023/09/26 07:48:36;;;;;;;1999.90;999.90;;;15.70;99.90;;;;;;4978849;28;20100;-67
2023/09/26 07:51:03;;;;;;;1999.90;999.90;;;15.70;99.90;;;;;;4984354;28;20119;-67
2023/09/26 07:53:29;;;;;;;1999.90;999.90;;;15.80;99.90;;;;;;4981362;28;20038;-67
2023/09/26 07:55:58;;;;;;;1999.90;999.90;;;15.90;99.90;;;;;;5005019;28;20042;-67
2023/09/26 07:58:24;;;;;;;1999.90;999.90;;;16.00;99.90;;;;;;4978782;28;20525;-67
2023/09/26 08:00:49;;;;;;;1999.90;999.90;;;16.00;99.90;;;;;;4988326;28;20544;-67
2023/09/26 08:03:15;;;;;;;1999.90;999.90;;;16.10;99.90;;;;;;4984329;28;20418;-67
2023/09/26 08:05:41;;;;;;;1999.90;999.90;;;16.10;99.90;;;;;;4980790;28;20168;-67
2023/09/26 08:08:07;;;;;;;1999.90;999.90;;;16.20;99.90;;;;;;4993308;28;20408;-68
2023/09/26 08:10:39;;;;;;;1999.90;999.90;;;16.20;99.90;;;;;;4980809;28;20061;-68
2023/09/26 08:13:06;;;;;;;1999.90;999.90;;;16.40;99.90;;;;;;4974731;28;20035;-68
2023/09/26 08:15:34;;;;;;;1999.90;999.90;;;16.50;99.90;;;;;;5006114;28;20502;-68
2023/09/26 08:18:03;;;;;;;1999.90;999.90;;;16.60;99.90;;;;;;4981705;28;20053;-68
2023/09/26 08:20:29;;;;;;;1999.90;999.90;;;16.70;99.90;;;;;;4992935;28;20042;-68
2023/09/26 08:22:54;;;;;;;1999.90;999.90;;;16.70;99.90;;;;;;4993237;28;20039;-68
2023/09/26 08:25:20;;;;;;;1999.90;999.90;;;16.80;99.90;;;;;;4996800;28;20125;-68
2023/09/26 08:27:46;;;;;;;1999.90;999.90;;;16.90;99.90;;;;;;4987860;28;20386;-68
2023/09/26 08:30:11;;;;;;;1999.90;999.90;;;17.00;99.90;;;;;;4985975;28;20509;-69
2023/09/26 08:32:38;;;;;;;1999.90;999.90;;;16.90;99.90;;;;;;4968391;28;20038;-68
2023/09/26 08:35:06;;;;;;;1999.90;999.90;;;16.90;99.90;;;;;;4986807;28;20046;-67
2023/09/26 08:37:33;;;;;;;1999.90;999.90;;;16.80;99.90;;;;;;4986029;28;20399;-67
2023/09/26 08:39:59;;;;;;;1999.90;999.90;;;16.80;99.90;;;;;;4990636;28;20487;-68
2023/09/26 08:42:27;;;;;;;1999.90;999.90;;;16.80;99.90;;;;;;4986961;28;20515;-68
2023/09/26 08:44:58;;;;;;;1999.90;999.90;;;16.90;99.90;;;;;;4969980;28;20499;-67
2023/09/26 08:47:24;;;;;;;1999.90;999.90;;;17.00;99.90;;;;;;4969701;28;20050;-68
2023/09/26 08:49:54;;;;;;;1999.90;999.90;;;17.40;99.90;;;;;;4974465;28;20054;-68
2023/09/26 08:52:25;;;;;;;1999.90;999.90;;;17.60;99.90;;;;;;4973022;28;20549;-67
2023/09/26 08:54:51;;;;;;;1999.90;999.90;;;17.80;99.90;;;;;;4970193;28;20046;-67
2023/09/26 08:57:21;;;;;;;1999.90;999.90;;;18.00;99.90;;;;;;4973453;28;20042;-67
2023/09/26 08:59:47;;;;;;;1999.90;999.90;;;18.00;99.90;;;;;;4973173;28;20672;-68
2023/09/26 09:02:13;;;;;;;1999.90;999.90;;;18.10;99.90;;;;;;4980680;28;20035;-68
2023/09/26 09:04:44;;;;;;;1999.90;999.90;;;18.20;99.90;;;;;;5014014;28;20463;-70
2023/09/26 09:07:10;;;;;;;1999.90;999.90;;;18.40;99.90;;;;;;4995351;28;20617;-68
2023/09/26 09:09:37;;;;;;;1999.90;999.90;;;18.60;99.90;;;;;;4975378;28;20121;-68
2023/09/26 09:12:03;;;;;;;1999.90;999.90;;;18.90;99.90;;;;;;4971601;28;20552;-68
2023/09/26 09:14:35;;;;;;;90.55;86.00;;;19.00;99.90;;;;;;4972528;28;20046;-68
2023/09/26 09:17:01;;;;;;;86.28;82.00;;;19.30;99.90;;;;;;4979549;28;20045;-68
2023/09/26 09:19:51;;;;;;;106.93;101.65;;;19.50;99.90;;;;;;4953203;28;20574;-68
2023/09/26 09:22:18;;;;;;;91.10;86.63;;;20.00;99.90;;;;;;4975553;28;20081;-68
2023/09/26 09:24:53;;;;;;;168.50;160.60;;;20.20;99.90;;;;;;4974000;28;20524;-68
2023/09/26 09:27:32;;;;;;;;;;;20.20;99.90;;;;;;4975064;28;20433;-68
2023/09/26 09:30:04;;;;;;;179.32;171.50;;;20.10;99.90;;;;;;4976360;28;19949;-68
2023/09/26 09:32:30;;;;;;;111.65;106.45;;;20.00;99.90;;;;;;4974405;28;20498;-68
2023/09/26 09:34:57;;;;;;;134.18;127.90;;;19.90;99.90;;;;;;4998278;28;20043;-68
2023/09/26 09:37:22;;;;;;;183.07;174.98;;;20.00;99.90;;;;;;4994878;28;20175;-68
2023/09/26 09:39:48;;;;;;;301.98;288.10;;;20.30;99.90;;;;;;5013683;27;20669;-68
2023/09/26 09:42:14;;;;;;;106.63;101.40;;;20.50;99.90;;;;;;4980790;28;20055;-68
2023/09/26 09:44:39;;;;;;;163.57;155.85;;;20.70;99.90;;;;;;4986998;28;20043;-68
2023/09/26 09:47:08;;;;;;;273.13;259.08;;;20.90;99.90;;;;;;4971211;28;20042;-68
2023/09/26 09:49:41;;;;;;;349.55;331.40;;;21.30;99.90;;;;;;4998008;28;20863;-68
2023/09/26 09:52:09;;;;;;;426.42;403.38;;;21.60;99.90;;;;;;4978054;28;20390;-67
2023/09/26 09:54:39;;;;;;;266.42;254.45;;;21.80;99.90;;;;;;4974916;28;20502;-67
2023/09/26 09:57:10;;;;;;;214.15;204.07;;;22.00;99.90;;;;;;4976419;28;20485;-67
2023/09/26 09:59:39;;;;;;;273.63;261.00;;;22.00;99.90;;;;;;4985732;28;20053;-68
2023/09/26 10:02:05;;;;;;;435.88;414.00;;;21.80;99.90;;;;;;4985684;28;20034;-67
2023/09/26 10:04:37;;;;;;;395.80;375.92;;;21.80;99.90;;;;;;5003454;28;20897;-67
2023/09/26 10:07:06;;;;;;;;;;;21.80;99.90;;;;;;4974722;28;20050;-68
2023/09/26 10:09:34;;;;;;;313.85;299.30;;;21.90;99.90;;;;;;4979063;28;19926;-67
2023/09/26 10:12:01;;;;;;;377.65;359.00;;;22.00;99.90;;;;;;4968191;28;20042;-67
2023/09/26 10:14:30;;;;;;;252.18;240.38;;;22.10;99.90;;;;;;4976467;28;20049;-67
2023/09/26 10:16:57;;;;;;;375.23;355.10;;;22.40;99.90;;;;;;4978887;28;20088;-67
2023/09/26 10:19:25;;;;;;;492.58;466.23;;;22.60;99.90;;;;;;4977613;28;20480;-67
2023/09/26 10:21:52;;;;;;;465.75;440.38;;;22.50;99.90;;;;;;4973879;28;21082;-68
2023/09/26 10:24:18;;;;;;;432.80;409.65;;;22.60;99.90;;;;;;5002683;28;20043;-67
2023/09/26 10:26:47;;;;;;;496.15;469.35;;;22.60;99.90;;;;;;4984398;28;20099;-67
2023/09/26 10:29:27;;;;;;;369.45;350.65;;;22.70;99.90;;;;;;4978508;28;20038;-67
2023/09/26 10:31:55;;;;;;;352.40;334.20;;;22.70;99.90;;;;;;4982652;28;20581;-67
2023/09/26 10:34:27;;;;;;;173.73;165.40;;;22.70;99.90;;;;;;4962935;28;20096;-67
2023/09/26 10:36:55;;;;;;;138.93;132.48;;;22.60;99.90;;;;;;4956947;28;20047;-67
2023/09/26 10:39:35;;;;;;;175.60;167.32;;;22.50;99.90;;;;;;4973076;28;20042;-67
2023/09/26 10:42:09;;;;;;;215.32;205.20;;;22.40;99.90;;;;;;4965403;28;20279;-67
2023/09/26 10:44:36;;;;;;;124.50;119.03;;;22.30;99.90;;;;;;4974060;28;20047;-67
2023/09/26 10:47:04;;;;;;;161.73;154.25;;;22.30;99.90;;;;;;4970176;28;20050;-67
2023/09/26 10:49:33;;;;;;;141.10;134.85;;;22.30;99.90;;;;;;4974172;28;20574;-67
2023/09/26 10:52:01;;;;;;;121.07;115.28;;;22.30;99.90;;;;;;4970440;28;20085;-67
2023/09/26 10:54:27;;;;;;;166.30;158.50;;;22.20;99.90;;;;;;4969684;28;20764;-67
2023/09/26 10:56:53;;;;;;;145.90;138.82;;;22.20;99.90;;;;;;4977635;28;20050;-67
2023/09/26 10:59:19;;;;;;;136.05;129.93;;;22.30;99.90;;;;;;4976383;28;20061;-67
2023/09/26 11:01:49;;;;;;;126.03;120.43;;;22.30;99.90;;;;;;4971341;28;20031;-67
2023/09/26 11:04:17;;;;;;;141.90;135.23;;;22.20;99.90;;;;;;4983062;28;20041;-67
2023/09/26 11:06:43;;;;;;;118.30;112.93;;;22.10;99.90;;;;;;4986532;28;20042;-67
2023/09/26 11:09:11;;;;;;;124.00;118.28;;;22.00;99.90;;;;;;4976108;28;20411;-67
2023/09/26 11:11:37;;;;;;;119.45;113.95;;;21.90;99.90;;;;;;4983894;28;20049;-67
2023/09/26 11:14:04;;;;;;;179.93;171.65;;;21.80;99.90;;;;;;4974615;28;20042;-67
2023/09/26 11:16:29;;;;;;;191.90;183.02;;;21.70;99.90;;;;;;4982052;28;20108;-67
2023/09/26 11:18:55;;;;;;;141.57;135.10;;;21.60;99.90;;;;;;4981546;28;20483;-67
2023/09/26 11:21:21;;;;;;;317.10;301.40;;;21.60;99.90;;;;;;5014352;28;20090;-67
2023/09/26 11:23:47;;;;;;;248.02;236.43;;;21.60;99.90;;;;;;4967669;28;20078;-67
2023/09/26 11:26:12;;;;;;;203.95;194.30;;;21.60;99.90;;;;;;4983022;28;20052;-67
2023/09/26 11:28:38;;;;;;;152.07;145.25;;;21.70;99.90;;;;;;5002359;28;20149;-67
2023/09/26 11:31:05;;;;;;;202.00;192.45;;;21.60;99.90;;;;;;4979937;28;20096;-67
2023/09/26 11:33:31;;;;;;;257.73;245.65;;;21.40;99.90;;;;;;4979152;28;20049;-68
2023/09/26 11:35:57;;;;;;;300.55;286.42;;;21.30;99.90;;;;;;4991826;28;20134;-67
2023/09/26 11:38:24;;;;;;;315.75;300.85;;;21.30;99.90;;;;;;5005110;28;20042;-67
2023/09/26 11:40:50;;;;;;;274.98;262.33;;;21.30;99.90;;;;;;4983244;28;20130;-68
2023/09/26 11:43:15;;;;;;;341.45;325.25;;;21.30;99.90;;;;;;5018916;27;20531;-67
2023/09/26 11:45:41;;;;;;;326.40;310.90;;;21.40;99.90;;;;;;4984711;28;20042;-67
2023/09/26 11:48:07;;;;;;;245.07;233.73;;;21.40;99.90;;;;;;4982732;28;20035;-67
2023/09/26 11:50:35;;;;;;;274.38;261.80;;;21.40;99.90;;;;;;4993461;28;20038;-67
2023/09/26 11:53:01;;;;;;;247.30;235.43;;;21.40;99.90;;;;;;4972493;28;20629;-67
2023/09/26 11:55:27;;;;;;;310.35;295.27;;;21.50;99.90;;;;;;4973730;28;20062;-67
2023/09/26 11:57:54;;;;;;;355.25;338.05;;;21.60;99.90;;;;;;4976686;28;20047;-67
2023/09/26 12:00:20;;;;;;;290.77;277.17;;;21.60;99.90;;;;;;4972540;28;20403;-67